createdAt,value
2022-12-24T00:00:05.825Z,937.67
2022-12-24T00:00:16.756Z,937.65
2022-12-24T00:00:27.757Z,937.65
2022-12-24T00:00:38.846Z,937.67
2022-12-24T00:00:49.804Z,937.68
2022-12-24T00:01:01.756Z,937.68
2022-12-24T00:01:12.762Z,937.68
2022-12-24T00:01:23.738Z,937.69
2022-12-24T00:01:34.756Z,937.65
2022-12-24T00:01:45.711Z,937.68
2022-12-24T00:01:56.769Z,937.70
2022-12-24T00:02:07.796Z,937.71
2022-12-24T00:02:18.860Z,937.70
2022-12-24T00:02:30.823Z,937.73
2022-12-24T00:02:41.835Z,937.69
2022-12-24T00:02:52.788Z,937.67
2022-12-24T00:03:03.872Z,937.68
2022-12-24T00:03:14.868Z,937.71
2022-12-24T00:03:26.880Z,937.70
2022-12-24T00:03:37.905Z,937.70
2022-12-24T00:03:48.854Z,937.72
2022-12-24T00:04:00.756Z,937.72
2022-12-24T00:04:11.763Z,937.73
2022-12-24T00:04:23.736Z,937.72
2022-12-24T00:04:34.769Z,937.71
2022-12-24T00:04:45.750Z,937.73
2022-12-24T00:05:01.085Z,937.74
2022-12-24T00:05:08.800Z,937.67
2022-12-24T00:05:20.765Z,937.66
2022-12-24T00:05:31.734Z,937.65
2022-12-24T00:05:42.741Z,937.64
2022-12-24T00:05:53.738Z,937.62
2022-12-24T00:06:04.714Z,937.63
2022-12-24T00:06:15.836Z,937.67
2022-12-24T00:06:27.783Z,937.67
2022-12-24T00:06:39.744Z,937.66
2022-12-24T00:06:50.767Z,937.66
2022-12-24T00:07:01.751Z,937.59
2022-12-24T00:07:12.729Z,937.69
2022-12-24T00:07:23.722Z,937.70
2022-12-24T00:07:34.708Z,937.60
2022-12-24T00:07:45.782Z,937.60
2022-12-24T00:07:56.753Z,937.64
2022-12-24T00:08:07.756Z,937.65
2022-12-24T00:08:18.733Z,937.66
2022-12-24T00:08:29.702Z,937.66
2022-12-24T00:08:40.725Z,937.67
2022-12-24T00:08:51.718Z,937.66
2022-12-24T00:09:03.733Z,937.66
2022-12-24T00:09:14.747Z,937.70
2022-12-24T00:09:25.738Z,937.69
2022-12-24T00:09:36.719Z,937.72
2022-12-24T00:09:47.731Z,937.69
2022-12-24T00:09:58.834Z,937.65
2022-12-24T00:10:10.772Z,937.69
2022-12-24T00:10:21.796Z,937.72
2022-12-24T00:10:33.735Z,937.71
2022-12-24T00:10:44.810Z,937.72
2022-12-24T00:10:56.747Z,937.73
2022-12-24T00:11:07.751Z,937.73
2022-12-24T00:11:18.721Z,937.73
2022-12-24T00:11:29.798Z,937.71
2022-12-24T00:11:41.778Z,937.72
2022-12-24T00:11:52.760Z,937.73
2022-12-24T00:12:03.738Z,937.75
2022-12-24T00:12:14.732Z,937.77
2022-12-24T00:12:25.734Z,937.72
2022-12-24T00:12:36.725Z,937.71
2022-12-24T00:12:47.738Z,937.68
2022-12-24T00:12:58.724Z,937.68
2022-12-24T00:13:09.801Z,937.68
2022-12-24T00:13:21.762Z,937.71
2022-12-24T00:13:32.738Z,937.74
2022-12-24T00:13:43.751Z,937.79
2022-12-24T00:13:54.718Z,937.79
2022-12-24T00:14:05.828Z,937.76
2022-12-24T00:14:17.764Z,937.75
2022-12-24T00:14:28.728Z,937.74
2022-12-24T00:14:39.737Z,937.72
2022-12-24T00:14:50.743Z,937.71
2022-12-24T00:15:01.714Z,937.72
2022-12-24T00:15:12.736Z,937.76
2022-12-24T00:15:23.733Z,937.76
2022-12-24T00:15:34.817Z,937.78
2022-12-24T00:15:46.768Z,937.78
2022-12-24T00:15:58.733Z,937.77
2022-12-24T00:16:09.731Z,937.78
2022-12-24T00:16:20.837Z,937.78
2022-12-24T00:16:32.867Z,937.74
2022-12-24T00:16:44.791Z,937.72
2022-12-24T00:16:56.771Z,937.71
2022-12-24T00:17:08.831Z,937.75
2022-12-24T00:17:19.765Z,937.77
2022-12-24T00:17:31.739Z,937.80
2022-12-24T00:17:42.753Z,937.81
2022-12-24T00:17:53.746Z,937.80
2022-12-24T00:18:04.704Z,937.78
2022-12-24T00:18:15.749Z,937.79
2022-12-24T00:18:26.721Z,937.76
2022-12-24T00:18:43.392Z,937.72
2022-12-24T00:18:50.784Z,937.75
2022-12-24T00:19:01.786Z,937.77
2022-12-24T00:19:12.760Z,937.77
2022-12-24T00:19:23.741Z,937.77
2022-12-24T00:19:34.806Z,937.79
2022-12-24T00:19:46.729Z,937.80
2022-12-24T00:19:57.804Z,937.80
2022-12-24T00:20:09.766Z,937.83
2022-12-24T00:20:20.773Z,937.84
2022-12-24T00:20:31.759Z,937.84
2022-12-24T00:20:42.744Z,937.83
2022-12-24T00:20:53.714Z,937.84
2022-12-24T00:21:04.727Z,937.83
2022-12-24T00:22:21.803Z,937.85
2022-12-24T00:22:33.781Z,937.85
2022-12-24T00:22:45.726Z,937.79
2022-12-24T00:22:56.728Z,937.78
2022-12-24T00:23:07.828Z,937.80
2022-12-24T00:23:19.767Z,937.83
2022-12-24T00:23:30.745Z,937.85
2022-12-24T00:23:41.718Z,937.79
2022-12-24T00:23:52.723Z,937.78
2022-12-24T00:24:03.802Z,937.77
2022-12-24T00:24:15.802Z,937.73
2022-12-24T00:24:27.743Z,937.69
2022-12-24T00:24:38.820Z,937.77
2022-12-24T00:24:50.753Z,937.84
2022-12-24T00:25:01.758Z,937.81
2022-12-24T00:25:12.831Z,937.81
2022-12-24T00:25:24.762Z,937.74
2022-12-24T00:25:35.753Z,937.76
2022-12-24T00:25:46.767Z,937.79
2022-12-24T00:25:57.760Z,937.84
2022-12-24T00:26:08.771Z,937.86
2022-12-24T00:26:19.754Z,937.87
2022-12-24T00:26:30.724Z,937.91
2022-12-24T00:26:41.710Z,937.93
2022-12-24T00:26:52.789Z,937.91
2022-12-24T00:27:03.759Z,937.86
2022-12-24T00:27:14.758Z,937.85
2022-12-24T00:27:25.744Z,937.87
2022-12-24T00:27:36.721Z,937.92
2022-12-24T00:27:47.798Z,937.94
2022-12-24T00:27:59.755Z,937.94
2022-12-24T00:28:10.747Z,937.92
2022-12-24T00:28:21.726Z,937.93
2022-12-24T00:28:32.707Z,937.92
2022-12-24T00:28:43.799Z,937.89
2022-12-24T00:28:55.744Z,937.93
2022-12-24T00:29:06.728Z,937.88
2022-12-24T00:29:17.714Z,937.82
2022-12-24T00:29:28.713Z,937.77
2022-12-24T00:29:39.709Z,937.81
2022-12-24T00:29:50.727Z,937.80
2022-12-24T00:30:01.806Z,937.79
2022-12-24T00:30:13.789Z,937.82
2022-12-24T00:30:24.764Z,937.78
2022-12-24T00:30:35.783Z,937.80
2022-12-24T00:30:46.791Z,937.82
2022-12-24T00:30:58.847Z,937.81
2022-12-24T00:31:10.833Z,937.81
2022-12-24T00:31:22.800Z,937.82
2022-12-24T00:31:34.799Z,937.83
2022-12-24T00:31:45.736Z,937.82
2022-12-24T00:31:56.755Z,937.80
2022-12-24T00:32:07.737Z,937.79
2022-12-24T00:32:18.726Z,937.80
2022-12-24T00:32:29.741Z,937.82
2022-12-24T00:32:40.722Z,937.83
2022-12-24T00:32:51.719Z,937.82
2022-12-24T00:33:02.783Z,937.82
2022-12-24T00:33:18.203Z,937.83
2022-12-24T00:33:26.743Z,937.82
2022-12-24T00:33:37.741Z,937.83
2022-12-24T00:33:48.788Z,937.84
2022-12-24T00:34:00.741Z,937.85
2022-12-24T00:34:11.758Z,937.83
2022-12-24T00:34:22.750Z,937.84
2022-12-24T00:34:33.720Z,937.88
2022-12-24T00:34:44.724Z,937.83
2022-12-24T00:34:55.814Z,937.83
2022-12-24T00:35:07.742Z,937.86
2022-12-24T00:35:18.762Z,937.88
2022-12-24T00:35:29.727Z,937.89
2022-12-24T00:35:40.719Z,937.88
2022-12-24T00:35:51.752Z,937.80
2022-12-24T00:36:02.742Z,937.83
2022-12-24T00:36:13.757Z,937.83
2022-12-24T00:36:24.771Z,937.85
2022-12-24T00:36:35.766Z,937.86
2022-12-24T00:36:46.769Z,937.88
2022-12-24T00:36:57.731Z,937.78
2022-12-24T00:37:08.738Z,937.80
2022-12-24T00:37:19.756Z,937.81
2022-12-24T00:37:30.740Z,937.91
2022-12-24T00:37:41.755Z,938.01
2022-12-24T00:37:52.755Z,937.89
2022-12-24T00:38:03.751Z,937.94
2022-12-24T00:38:14.774Z,937.92
2022-12-24T00:38:26.748Z,937.94
2022-12-24T00:38:37.755Z,937.98
2022-12-24T00:38:48.747Z,937.91
2022-12-24T00:38:59.750Z,937.95
2022-12-24T00:39:10.759Z,937.94
2022-12-24T00:39:21.759Z,937.89
2022-12-24T00:39:32.778Z,937.88
2022-12-24T00:39:43.765Z,937.86
2022-12-24T00:39:54.806Z,937.95
2022-12-24T00:40:06.747Z,937.93
2022-12-24T00:40:17.726Z,937.91
2022-12-24T00:40:28.709Z,937.91
2022-12-24T00:40:39.786Z,937.91
2022-12-24T00:40:50.791Z,937.93
2022-12-24T00:41:01.792Z,937.96
2022-12-24T00:41:13.762Z,937.92
2022-12-24T00:41:25.505Z,937.89
2022-12-24T00:41:35.746Z,937.81
2022-12-24T00:41:46.737Z,937.85
2022-12-24T00:41:57.731Z,937.91
2022-12-24T00:42:08.728Z,937.90
2022-12-24T00:42:19.709Z,937.91
2022-12-24T00:42:30.744Z,937.95
2022-12-24T00:42:41.751Z,937.92
2022-12-24T00:42:52.707Z,937.94
2022-12-24T00:43:03.704Z,937.98
2022-12-24T00:43:14.823Z,937.93
2022-12-24T00:43:26.774Z,937.90
2022-12-24T00:43:37.747Z,937.89
2022-12-24T00:43:48.773Z,937.95
2022-12-24T00:43:59.746Z,937.88
2022-12-24T00:44:10.725Z,937.90
2022-12-24T00:44:21.750Z,937.94
2022-12-24T00:44:32.752Z,937.98
2022-12-24T00:44:43.750Z,938.00
2022-12-24T00:44:54.723Z,937.98
2022-12-24T00:45:05.723Z,938.00
2022-12-24T00:45:16.727Z,938.04
2022-12-24T00:45:27.736Z,938.02
2022-12-24T00:45:38.737Z,938.03
2022-12-24T00:45:49.783Z,938.01
2022-12-24T00:46:00.800Z,937.97
2022-12-24T00:46:11.773Z,937.97
2022-12-24T00:46:23.811Z,937.99
2022-12-24T00:46:34.816Z,937.95
2022-12-24T00:46:46.759Z,938.00
2022-12-24T00:46:57.745Z,937.98
2022-12-24T00:47:12.208Z,938.00
2022-12-24T00:47:19.723Z,938.02
2022-12-24T00:47:30.740Z,938.02
2022-12-24T00:47:41.715Z,938.00
2022-12-24T00:47:52.786Z,938.03
2022-12-24T00:48:04.757Z,938.05
2022-12-24T00:48:15.774Z,938.05
2022-12-24T00:48:26.745Z,938.04
2022-12-24T00:48:37.752Z,938.03
2022-12-24T00:48:48.751Z,938.01
2022-12-24T00:48:59.749Z,938.02
2022-12-24T00:49:10.764Z,938.05
2022-12-24T00:49:21.759Z,938.04
2022-12-24T00:49:32.780Z,937.99
2022-12-24T00:49:43.775Z,937.99
2022-12-24T00:49:54.755Z,938.04
2022-12-24T00:50:05.732Z,938.02
2022-12-24T00:50:16.739Z,937.97
2022-12-24T00:50:27.739Z,937.97
2022-12-24T00:50:38.890Z,938.00
2022-12-24T00:50:49.848Z,938.03
2022-12-24T00:51:00.757Z,938.04
2022-12-24T00:51:11.794Z,937.98
2022-12-24T00:51:23.791Z,937.95
2022-12-24T00:51:34.817Z,937.98
2022-12-24T00:51:45.739Z,938.00
2022-12-24T00:51:56.714Z,938.01
2022-12-24T00:52:07.805Z,938.03
2022-12-24T00:52:19.763Z,938.04
2022-12-24T00:52:30.740Z,938.03
2022-12-24T00:52:41.742Z,938.04
2022-12-24T00:52:52.771Z,938.03
2022-12-24T00:53:03.769Z,938.04
2022-12-24T00:53:14.772Z,938.00
2022-12-24T00:53:25.761Z,938.05
2022-12-24T00:53:36.756Z,938.05
2022-12-24T00:53:48.738Z,938.10
2022-12-24T00:53:59.748Z,938.07
2022-12-24T00:54:10.763Z,938.05
2022-12-24T00:54:21.796Z,937.99
2022-12-24T00:54:33.740Z,938.02
2022-12-24T00:54:44.721Z,938.00
2022-12-24T00:54:55.722Z,938.05
2022-12-24T00:55:06.799Z,938.07
2022-12-24T00:55:18.733Z,938.08
2022-12-24T00:55:29.736Z,938.06
2022-12-24T00:55:40.727Z,938.07
2022-12-24T00:55:51.721Z,938.07
2022-12-24T00:56:02.718Z,938.04
2022-12-24T00:56:13.716Z,938.05
2022-12-24T00:56:24.718Z,938.08
2022-12-24T00:56:35.821Z,938.08
2022-12-24T00:56:47.772Z,938.08
2022-12-24T00:56:59.736Z,938.08
2022-12-24T00:57:10.714Z,938.03
2022-12-24T00:57:21.760Z,938.00
2022-12-24T00:57:33.736Z,938.03
2022-12-24T00:57:44.764Z,938.07
2022-12-24T00:57:55.720Z,938.04
2022-12-24T00:58:06.731Z,938.01
2022-12-24T00:58:17.800Z,938.03
2022-12-24T00:58:29.746Z,938.04
2022-12-24T00:58:40.739Z,938.02
2022-12-24T00:58:51.762Z,938.03
2022-12-24T00:59:02.737Z,938.01
2022-12-24T00:59:13.764Z,938.01
2022-12-24T00:59:24.764Z,938.01
2022-12-24T00:59:36.733Z,938.01
2022-12-24T00:59:47.756Z,938.06
2022-12-24T00:59:58.802Z,938.06
2022-12-24T01:00:09.764Z,937.99
2022-12-24T01:00:20.744Z,938.00
2022-12-24T01:00:31.750Z,938.00
2022-12-24T01:00:42.755Z,938.01
2022-12-24T01:00:53.746Z,937.99
2022-12-24T01:01:04.795Z,938.00
2022-12-24T01:01:15.922Z,938.06
2022-12-24T01:01:27.899Z,938.07
2022-12-24T01:01:39.831Z,938.07
2022-12-24T01:01:50.910Z,938.07
2022-12-24T01:02:02.852Z,938.06
2022-12-24T01:02:14.021Z,938.04
2022-12-24T01:02:24.858Z,938.05
2022-12-24T01:02:37.001Z,938.05
2022-12-24T01:02:48.056Z,938.07
2022-12-24T01:02:59.973Z,938.08
2022-12-24T01:03:10.908Z,938.07
2022-12-24T01:03:21.774Z,938.05
2022-12-24T01:03:33.898Z,938.06
2022-12-24T01:03:44.941Z,938.05
2022-12-24T01:03:55.804Z,938.04
2022-12-24T01:04:07.783Z,938.04
2022-12-24T01:04:19.744Z,938.07
2022-12-24T01:04:30.757Z,937.95
2022-12-24T01:04:41.762Z,937.99
2022-12-24T01:04:52.757Z,938.00
2022-12-24T01:05:04.826Z,938.05
2022-12-24T01:05:15.838Z,938.11
2022-12-24T01:05:27.751Z,938.07
2022-12-24T01:05:38.783Z,938.06
2022-12-24T01:05:49.751Z,938.09
2022-12-24T01:06:00.767Z,938.06
2022-12-24T01:06:11.753Z,938.10
2022-12-24T01:06:22.739Z,938.10
2022-12-24T01:06:33.734Z,938.10
2022-12-24T01:06:44.790Z,938.05
2022-12-24T01:06:55.747Z,938.06
2022-12-24T01:07:06.732Z,938.08
2022-12-24T01:07:17.708Z,938.05
2022-12-24T01:07:28.782Z,938.05
2022-12-24T01:07:40.767Z,938.05
2022-12-24T01:07:51.760Z,938.12
2022-12-24T01:08:02.784Z,938.14
2022-12-24T01:08:13.761Z,938.12
2022-12-24T01:08:25.742Z,938.20
2022-12-24T01:08:36.842Z,938.16
2022-12-24T01:08:48.795Z,938.12
2022-12-24T01:09:00.739Z,938.14
2022-12-24T01:09:11.747Z,938.14
2022-12-24T01:09:22.728Z,938.11
2022-12-24T01:09:33.711Z,938.13
2022-12-24T01:09:44.810Z,938.17
2022-12-24T01:09:56.787Z,938.20
2022-12-24T01:10:07.770Z,938.22
2022-12-24T01:10:19.753Z,938.25
2022-12-24T01:10:30.753Z,938.22
2022-12-24T01:10:41.798Z,938.12
2022-12-24T01:10:52.784Z,938.07
2022-12-24T01:11:04.763Z,938.13
2022-12-24T01:11:15.888Z,938.14
2022-12-24T01:11:27.746Z,938.12
2022-12-24T01:11:38.805Z,938.13
2022-12-24T01:11:50.759Z,938.18
2022-12-24T01:12:01.754Z,938.21
2022-12-24T01:12:12.752Z,938.20
2022-12-24T01:12:23.817Z,938.21
2022-12-24T01:12:35.782Z,938.22
2022-12-24T01:12:46.777Z,938.20
2022-12-24T01:12:57.757Z,938.20
2022-12-24T01:13:08.740Z,938.19
2022-12-24T01:13:19.721Z,938.20
2022-12-24T01:13:30.753Z,938.20
2022-12-24T01:13:41.724Z,938.21
2022-12-24T01:13:52.740Z,938.20
2022-12-24T01:14:03.750Z,938.23
2022-12-24T01:14:14.768Z,938.27
2022-12-24T01:14:25.768Z,938.24
2022-12-24T01:14:37.739Z,938.24
2022-12-24T01:14:48.751Z,938.25
2022-12-24T01:14:59.826Z,938.29
2022-12-24T01:15:11.762Z,938.28
2022-12-24T01:15:22.766Z,938.29
2022-12-24T01:15:33.833Z,938.31
2022-12-24T01:15:45.851Z,938.29
2022-12-24T01:15:56.810Z,938.27
2022-12-24T01:16:08.870Z,938.27
2022-12-24T01:16:20.894Z,938.27
2022-12-24T01:16:32.902Z,938.28
2022-12-24T01:16:43.769Z,938.30
2022-12-24T01:16:54.757Z,938.31
2022-12-24T01:17:05.751Z,938.30
2022-12-24T01:17:16.738Z,938.31
2022-12-24T01:17:27.729Z,938.33
2022-12-24T01:17:38.825Z,938.33
2022-12-24T01:17:50.797Z,938.34
2022-12-24T01:18:01.800Z,938.32
2022-12-24T01:18:13.783Z,938.34
2022-12-24T01:18:24.746Z,938.34
2022-12-24T01:18:35.763Z,938.34
2022-12-24T01:18:46.754Z,938.37
2022-12-24T01:18:57.758Z,938.38
2022-12-24T01:19:09.091Z,938.33
2022-12-24T01:19:20.758Z,938.35
2022-12-24T01:19:31.747Z,938.33
2022-12-24T01:19:42.741Z,938.29
2022-12-24T01:19:53.729Z,938.32
2022-12-24T01:20:04.737Z,938.35
2022-12-24T01:20:15.710Z,938.37
2022-12-24T01:20:26.807Z,938.40
2022-12-24T01:20:38.795Z,938.35
2022-12-24T01:20:49.755Z,938.32
2022-12-24T01:21:00.737Z,938.41
2022-12-24T01:21:11.755Z,938.41
2022-12-24T01:21:22.757Z,938.38
2022-12-24T01:21:33.748Z,938.43
2022-12-24T01:21:44.747Z,938.39
2022-12-24T01:21:55.731Z,938.40
2022-12-24T01:22:06.706Z,938.43
2022-12-24T01:22:17.787Z,938.45
2022-12-24T01:22:28.756Z,938.42
2022-12-24T01:22:39.734Z,938.40
2022-12-24T01:22:50.838Z,938.42
2022-12-24T01:23:02.785Z,938.44
2022-12-24T01:23:14.766Z,938.44
2022-12-24T01:23:25.764Z,938.44
2022-12-24T01:23:36.762Z,938.45
2022-12-24T01:23:47.735Z,938.45
2022-12-24T01:23:58.735Z,938.46
2022-12-24T01:24:09.831Z,938.50
2022-12-24T01:24:21.762Z,938.51
2022-12-24T01:24:32.750Z,938.49
2022-12-24T01:24:43.775Z,938.51
2022-12-24T01:24:55.756Z,938.54
2022-12-24T01:25:06.741Z,938.50
2022-12-24T01:25:17.748Z,938.49
2022-12-24T01:25:28.829Z,938.48
2022-12-24T01:25:40.779Z,938.52
2022-12-24T01:25:52.750Z,938.57
2022-12-24T01:26:03.761Z,938.50
2022-12-24T01:26:14.763Z,938.52
2022-12-24T01:26:38.349Z,938.50
2022-12-24T01:26:39.806Z,938.57
2022-12-24T01:26:51.740Z,938.64
2022-12-24T01:27:02.715Z,938.64
2022-12-24T01:27:13.799Z,938.61
2022-12-24T01:27:24.765Z,938.66
2022-12-24T01:27:35.727Z,938.70
2022-12-24T01:27:47.753Z,938.65
2022-12-24T01:27:58.756Z,938.59
2022-12-24T01:28:09.714Z,938.60
2022-12-24T01:28:20.789Z,938.63
2022-12-24T01:28:31.769Z,938.72
2022-12-24T01:28:42.747Z,938.71
2022-12-24T01:30:58.816Z,938.69
2022-12-24T01:31:10.859Z,938.66
2022-12-24T01:31:21.862Z,938.69
2022-12-24T01:31:32.799Z,938.66
2022-12-24T01:31:43.945Z,938.61
2022-12-24T01:31:55.717Z,938.64
2022-12-24T01:32:06.822Z,938.64
2022-12-24T01:32:18.784Z,938.62
2022-12-24T01:32:30.791Z,938.65
2022-12-24T01:32:41.776Z,938.68
2022-12-24T01:32:52.791Z,938.69
2022-12-24T01:33:03.777Z,938.67
2022-12-24T01:33:14.756Z,938.73
2022-12-24T01:33:25.767Z,938.70
2022-12-24T01:33:36.755Z,938.66
2022-12-24T01:33:47.784Z,938.62
2022-12-24T01:33:59.781Z,938.64
2022-12-24T01:34:10.753Z,938.68
2022-12-24T01:34:21.773Z,938.72
2022-12-24T01:34:32.752Z,938.77
2022-12-24T01:34:43.747Z,938.75
2022-12-24T01:34:54.858Z,938.67
2022-12-24T01:35:06.801Z,938.71
2022-12-24T01:35:18.733Z,938.74
2022-12-24T01:35:29.757Z,938.74
2022-12-24T01:35:40.753Z,938.79
2022-12-24T01:35:51.800Z,938.80
2022-12-24T01:36:03.741Z,938.72
2022-12-24T01:36:14.773Z,938.68
2022-12-24T01:36:25.788Z,938.71
2022-12-24T01:36:37.738Z,938.70
2022-12-24T01:36:48.815Z,938.70
2022-12-24T01:37:00.785Z,938.74
2022-12-24T01:37:12.786Z,938.77
2022-12-24T01:37:23.762Z,938.76
2022-12-24T01:37:34.787Z,938.75
2022-12-24T01:37:45.782Z,938.71
2022-12-24T01:37:56.790Z,938.72
2022-12-24T01:38:07.774Z,938.79
2022-12-24T01:38:18.785Z,938.78
2022-12-24T01:38:29.765Z,938.70
2022-12-24T01:38:40.765Z,938.65
2022-12-24T01:38:51.764Z,938.71
2022-12-24T01:39:03.732Z,938.77
2022-12-24T01:39:14.741Z,938.76
2022-12-24T01:39:25.736Z,938.75
2022-12-24T01:39:36.812Z,938.76
2022-12-24T01:39:48.770Z,938.78
2022-12-24T01:39:59.754Z,938.79
2022-12-24T01:40:10.737Z,938.78
2022-12-24T01:40:21.740Z,938.78
2022-12-24T01:40:32.744Z,938.79
2022-12-24T01:40:43.740Z,938.82
2022-12-24T01:40:54.733Z,938.87
2022-12-24T01:41:05.714Z,938.83
2022-12-24T01:41:16.798Z,938.78
2022-12-24T01:41:28.799Z,938.76
2022-12-24T01:41:40.760Z,938.75
2022-12-24T01:41:51.758Z,938.79
2022-12-24T01:42:02.743Z,938.76
2022-12-24T01:42:13.749Z,938.75
2022-12-24T01:42:24.735Z,938.70
2022-12-24T01:42:35.825Z,938.73
2022-12-24T01:42:47.782Z,938.77
2022-12-24T01:42:58.760Z,938.83
2022-12-24T01:43:09.762Z,938.86
2022-12-24T01:43:21.764Z,938.79
2022-12-24T01:43:32.771Z,938.78
2022-12-24T01:43:43.772Z,938.79
2022-12-24T01:43:55.714Z,938.79
2022-12-24T01:44:06.729Z,938.80
2022-12-24T01:44:17.807Z,938.80
2022-12-24T01:44:35.741Z,938.80
2022-12-24T01:44:42.789Z,938.79
2022-12-24T01:44:53.757Z,938.80
2022-12-24T01:45:04.770Z,938.79
2022-12-24T01:45:15.776Z,938.79
2022-12-24T01:45:26.729Z,938.79
2022-12-24T01:45:37.752Z,938.76
2022-12-24T01:45:48.745Z,938.77
2022-12-24T01:45:59.810Z,938.81
2022-12-24T01:46:11.827Z,938.79
2022-12-24T01:46:23.884Z,938.77
2022-12-24T01:46:35.826Z,938.77
2022-12-24T01:46:46.833Z,938.80
2022-12-24T01:46:57.802Z,938.84
2022-12-24T01:47:09.790Z,938.82
2022-12-24T01:47:20.767Z,938.81
2022-12-24T01:47:32.734Z,938.79
2022-12-24T01:47:43.740Z,938.81
2022-12-24T01:47:54.765Z,938.81
2022-12-24T01:48:05.759Z,938.80
2022-12-24T01:48:16.755Z,938.84
2022-12-24T01:48:27.736Z,938.84
2022-12-24T01:48:38.827Z,938.87
2022-12-24T01:48:50.774Z,938.87
2022-12-24T01:49:02.749Z,938.82
2022-12-24T01:49:13.736Z,938.80
2022-12-24T01:49:24.807Z,938.78
2022-12-24T01:49:36.798Z,938.79
2022-12-24T01:49:48.745Z,938.81
2022-12-24T01:49:59.729Z,938.85
2022-12-24T01:50:10.779Z,938.86
2022-12-24T01:50:21.764Z,938.85
2022-12-24T01:50:33.738Z,938.83
2022-12-24T01:50:44.715Z,938.84
2022-12-24T01:50:55.796Z,938.86
2022-12-24T01:51:07.765Z,938.89
2022-12-24T01:51:18.780Z,938.88
2022-12-24T01:51:30.739Z,938.86
2022-12-24T01:51:41.736Z,938.86
2022-12-24T01:51:52.762Z,938.86
2022-12-24T01:52:03.750Z,938.88
2022-12-24T01:52:14.744Z,938.90
2022-12-24T01:52:25.755Z,938.89
2022-12-24T01:52:36.756Z,938.90
2022-12-24T01:52:47.746Z,938.90
2022-12-24T01:52:58.769Z,938.90
2022-12-24T01:53:09.749Z,938.88
2022-12-24T01:53:20.753Z,938.89
2022-12-24T01:53:31.756Z,938.87
2022-12-24T01:53:42.740Z,938.86
2022-12-24T01:53:53.767Z,938.86
2022-12-24T01:54:04.752Z,938.85
2022-12-24T01:54:15.756Z,938.86
2022-12-24T01:54:26.757Z,938.86
2022-12-24T01:54:37.749Z,938.87
2022-12-24T01:54:48.744Z,938.87
2022-12-24T01:54:59.749Z,938.87
2022-12-24T01:55:10.824Z,938.84
2022-12-24T01:55:22.782Z,938.82
2022-12-24T01:55:34.764Z,938.85
2022-12-24T01:55:45.749Z,938.88
2022-12-24T01:55:56.744Z,938.88
2022-12-24T01:56:07.760Z,938.86
2022-12-24T01:56:18.746Z,938.86
2022-12-24T01:56:29.758Z,938.88
2022-12-24T01:56:40.735Z,938.86
2022-12-24T01:56:51.754Z,938.84
2022-12-24T01:57:02.763Z,938.89
2022-12-24T01:57:14.756Z,938.90
2022-12-24T01:57:26.755Z,938.85
2022-12-24T01:57:37.735Z,938.85
2022-12-24T01:57:48.719Z,938.87
2022-12-24T01:57:59.749Z,938.87
2022-12-24T01:58:10.738Z,938.89
2022-12-24T01:58:21.720Z,938.94
2022-12-24T01:58:32.811Z,938.96
2022-12-24T01:58:44.793Z,938.95
2022-12-24T01:58:55.785Z,938.96
2022-12-24T01:59:07.776Z,938.98
2022-12-24T01:59:18.762Z,939.02
2022-12-24T01:59:30.746Z,939.03
2022-12-24T01:59:41.757Z,939.07
2022-12-24T01:59:52.726Z,939.06
2022-12-24T02:00:03.835Z,938.99
2022-12-24T02:00:15.847Z,938.96
2022-12-24T02:00:27.791Z,938.93
2022-12-24T02:00:39.738Z,938.98
2022-12-24T02:00:50.804Z,939.07
2022-12-24T02:01:02.820Z,939.05
2022-12-24T02:01:14.906Z,938.94
2022-12-24T02:01:26.830Z,939.00
2022-12-24T02:01:37.955Z,938.99
2022-12-24T02:01:48.862Z,939.01
2022-12-24T02:02:00.858Z,939.10
2022-12-24T02:02:11.863Z,939.12
2022-12-24T02:02:22.878Z,939.10
2022-12-24T02:02:34.075Z,939.04
2022-12-24T02:02:44.821Z,939.04
2022-12-24T02:02:56.822Z,939.07
2022-12-24T02:03:07.845Z,939.09
2022-12-24T02:03:18.791Z,939.12
2022-12-24T02:03:30.837Z,939.11
2022-12-24T02:03:42.851Z,939.09
2022-12-24T02:03:54.911Z,939.09
2022-12-24T02:04:06.769Z,939.10
2022-12-24T02:04:17.757Z,939.12
2022-12-24T02:04:28.743Z,939.11
2022-12-24T02:04:39.733Z,939.08
2022-12-24T02:04:50.751Z,939.09
2022-12-24T02:05:01.759Z,939.14
2022-12-24T02:05:24.440Z,939.15
2022-12-24T02:05:25.810Z,939.20
2022-12-24T02:05:37.727Z,939.22
2022-12-24T02:05:48.729Z,939.26
2022-12-24T02:07:06.799Z,939.10
2022-12-24T02:07:18.747Z,939.13
2022-12-24T02:07:29.780Z,939.13
2022-12-24T02:07:40.750Z,939.14
2022-12-24T02:07:51.762Z,939.14
2022-12-24T02:08:02.733Z,939.19
2022-12-24T02:08:13.732Z,939.19
2022-12-24T02:08:24.728Z,939.15
2022-12-24T02:08:35.822Z,939.20
2022-12-24T02:08:47.771Z,939.18
2022-12-24T02:08:58.750Z,939.17
2022-12-24T02:09:09.742Z,939.09
2022-12-24T02:09:20.754Z,939.23
2022-12-24T02:09:31.718Z,939.16
2022-12-24T02:09:42.806Z,939.09
2022-12-24T02:09:54.761Z,939.19
2022-12-24T02:10:05.766Z,939.23
2022-12-24T02:10:16.778Z,939.14
2022-12-24T02:10:28.758Z,939.06
2022-12-24T02:10:39.765Z,939.15
2022-12-24T02:10:50.765Z,939.16
2022-12-24T02:11:01.748Z,939.22
2022-12-24T02:11:12.767Z,939.23
2022-12-24T02:11:23.771Z,939.19
2022-12-24T02:11:34.753Z,939.17
2022-12-24T02:11:45.724Z,939.17
2022-12-24T02:11:56.747Z,939.12
2022-12-24T02:12:07.751Z,939.14
2022-12-24T02:12:18.721Z,939.15
2022-12-24T02:12:29.720Z,939.19
2022-12-24T02:12:40.731Z,939.18
2022-12-24T02:12:51.751Z,939.17
2022-12-24T02:13:02.744Z,939.21
2022-12-24T02:13:13.729Z,939.16
2022-12-24T02:13:24.720Z,939.22
2022-12-24T02:13:35.725Z,939.23
2022-12-24T02:13:46.753Z,939.25
2022-12-24T02:13:57.745Z,939.31
2022-12-24T02:14:08.808Z,939.33
2022-12-24T02:14:20.788Z,939.35
2022-12-24T02:14:31.772Z,939.26
2022-12-24T02:14:43.748Z,939.24
2022-12-24T02:14:54.752Z,939.22
2022-12-24T02:15:05.839Z,939.16
2022-12-24T02:15:17.818Z,939.17
2022-12-24T02:15:29.773Z,939.18
2022-12-24T02:15:40.773Z,939.19
2022-12-24T02:15:51.783Z,939.23
2022-12-24T02:16:03.824Z,939.25
2022-12-24T02:16:14.824Z,939.29
2022-12-24T02:16:26.864Z,939.31
2022-12-24T02:16:38.878Z,939.30
2022-12-24T02:16:49.772Z,939.31
2022-12-24T02:17:00.769Z,939.33
2022-12-24T02:17:11.743Z,939.33
2022-12-24T02:17:22.819Z,939.36
2022-12-24T02:17:34.775Z,939.40
2022-12-24T02:17:45.769Z,939.38
2022-12-24T02:17:56.760Z,939.34
2022-12-24T02:18:07.757Z,939.29
2022-12-24T02:18:18.737Z,939.25
2022-12-24T02:18:29.708Z,939.26
2022-12-24T02:18:40.823Z,939.38
2022-12-24T02:18:52.799Z,939.34
2022-12-24T02:19:04.750Z,939.36
2022-12-24T02:19:15.760Z,939.32
2022-12-24T02:19:26.730Z,939.35
2022-12-24T02:19:37.813Z,939.42
2022-12-24T02:19:49.753Z,939.56
2022-12-24T02:20:01.192Z,939.41
2022-12-24T02:20:12.786Z,939.37
2022-12-24T02:20:24.767Z,939.37
2022-12-24T02:20:35.782Z,939.29
2022-12-24T02:20:46.744Z,939.29
2022-12-24T02:20:57.761Z,939.39
2022-12-24T02:21:08.767Z,939.36
2022-12-24T02:21:19.754Z,939.36
2022-12-24T02:21:30.763Z,939.35
2022-12-24T02:21:42.733Z,939.32
2022-12-24T02:21:53.741Z,939.36
2022-12-24T02:22:04.750Z,939.39
2022-12-24T02:22:15.841Z,939.34
2022-12-24T02:22:27.781Z,939.28
2022-12-24T02:22:38.767Z,939.31
2022-12-24T02:22:50.755Z,939.32
2022-12-24T02:23:01.736Z,939.31
2022-12-24T02:23:12.786Z,939.35
2022-12-24T02:23:24.759Z,939.37
2022-12-24T02:23:35.735Z,939.39
2022-12-24T02:23:46.781Z,939.47
2022-12-24T02:23:57.766Z,939.47
2022-12-24T02:24:08.779Z,939.41
2022-12-24T02:24:19.774Z,939.46
2022-12-24T02:24:31.747Z,939.46